sensor_id;sensor_type;location;lat;lon;timestamp;temperature;humidity
28845;DHT22;15976;47.938;7.758;2023-12-28T00:02:22;10.20;48.20
28845;DHT22;15976;47.938;7.758;2023-12-28T00:04:49;10.20;48.50
28845;DHT22;15976;47.938;7.758;2023-12-28T00:07:16;10.10;48.50
28845;DHT22;15976;47.938;7.758;2023-12-28T00:09:43;10.10;48.60
28845;DHT22;15976;47.938;7.758;2023-12-28T00:12:10;10.10;48.60
28845;DHT22;15976;47.938;7.758;2023-12-28T00:14:37;10.20;48.60
28845;DHT22;15976;47.938;7.758;2023-12-28T00:17:04;10.20;48.30
28845;DHT22;15976;47.938;7.758;2023-12-28T00:19:31;10.30;48.30
28845;DHT22;15976;47.938;7.758;2023-12-28T00:21:58;10.30;48.20
28845;DHT22;15976;47.938;7.758;2023-12-28T00:24:25;10.40;47.90
28845;DHT22;15976;47.938;7.758;2023-12-28T00:26:52;10.40;47.80
28845;DHT22;15976;47.938;7.758;2023-12-28T00:29:19;10.40;47.60
28845;DHT22;15976;47.938;7.758;2023-12-28T00:31:46;10.60;47.40
28845;DHT22;15976;47.938;7.758;2023-12-28T00:34:13;10.50;47.30
28845;DHT22;15976;47.938;7.758;2023-12-28T00:36:40;10.60;47.30
28845;DHT22;15976;47.938;7.758;2023-12-28T00:39:07;10.60;47.30
28845;DHT22;15976;47.938;7.758;2023-12-28T00:41:35;10.60;47.30
28845;DHT22;15976;47.938;7.758;2023-12-28T00:44:03;10.60;47.30
28845;DHT22;15976;47.938;7.758;2023-12-28T00:46:32;10.60;47.30
28845;DHT22;15976;47.938;7.758;2023-12-28T00:48:59;10.50;47.20
28845;DHT22;15976;47.938;7.758;2023-12-28T00:51:26;10.60;47.10
28845;DHT22;15976;47.938;7.758;2023-12-28T00:53:53;10.60;47.00
28845;DHT22;15976;47.938;7.758;2023-12-28T00:56:21;10.70;47.00
28845;DHT22;15976;47.938;7.758;2023-12-28T00:58:48;10.60;47.10
28845;DHT22;15976;47.938;7.758;2023-12-28T01:01:15;10.50;47.40
28845;DHT22;15976;47.938;7.758;2023-12-28T01:03:42;10.50;47.60
28845;DHT22;15976;47.938;7.758;2023-12-28T01:06:10;10.50;47.80
28845;DHT22;15976;47.938;7.758;2023-12-28T01:08:38;10.40;48.00
28845;DHT22;15976;47.938;7.758;2023-12-28T01:11:05;10.40;47.90
28845;DHT22;15976;47.938;7.758;2023-12-28T01:13:32;10.40;48.00
28845;DHT22;15976;47.938;7.758;2023-12-28T01:15:59;10.30;48.10
28845;DHT22;15976;47.938;7.758;2023-12-28T01:18:27;10.30;48.10
28845;DHT22;15976;47.938;7.758;2023-12-28T01:20:54;10.30;47.90
28845;DHT22;15976;47.938;7.758;2023-12-28T01:23:21;10.40;47.80
28845;DHT22;15976;47.938;7.758;2023-12-28T01:25:48;10.40;47.60
28845;DHT22;15976;47.938;7.758;2023-12-28T01:28:15;10.40;47.60
28845;DHT22;15976;47.938;7.758;2023-12-28T01:30:42;10.40;47.70
28845;DHT22;15976;47.938;7.758;2023-12-28T01:33:11;10.40;47.60
28845;DHT22;15976;47.938;7.758;2023-12-28T01:35:38;10.40;47.50
28845;DHT22;15976;47.938;7.758;2023-12-28T01:38:07;10.50;47.50
28845;DHT22;15976;47.938;7.758;2023-12-28T01:40:34;10.50;48.00
28845;DHT22;15976;47.938;7.758;2023-12-28T01:43:01;10.40;47.80
28845;DHT22;15976;47.938;7.758;2023-12-28T01:45:28;10.40;47.90
28845;DHT22;15976;47.938;7.758;2023-12-28T01:47:57;10.30;48.10
28845;DHT22;15976;47.938;7.758;2023-12-28T01:50:27;10.30;48.10
28845;DHT22;15976;47.938;7.758;2023-12-28T01:52:55;10.30;48.10
28845;DHT22;15976;47.938;7.758;2023-12-28T01:55:24;10.30;48.20
28845;DHT22;15976;47.938;7.758;2023-12-28T01:57:53;10.20;48.20
28845;DHT22;15976;47.938;7.758;2023-12-28T02:00:21;10.20;48.60
28845;DHT22;15976;47.938;7.758;2023-12-28T02:02:50;10.10;48.80
28845;DHT22;15976;47.938;7.758;2023-12-28T02:05:17;10.10;48.80
28845;DHT22;15976;47.938;7.758;2023-12-28T02:07:45;10.10;49.10
28845;DHT22;15976;47.938;7.758;2023-12-28T02:10:12;10.00;49.20
28845;DHT22;15976;47.938;7.758;2023-12-28T02:12:39;10.00;49.10
28845;DHT22;15976;47.938;7.758;2023-12-28T02:15:07;10.00;49.00
28845;DHT22;15976;47.938;7.758;2023-12-28T02:17:47;10.00;48.90
28845;DHT22;15976;47.938;7.758;2023-12-28T02:20:19;10.00;49.30
28845;DHT22;15976;47.938;7.758;2023-12-28T02:22:47;9.90;49.50
28845;DHT22;15976;47.938;7.758;2023-12-28T02:25:15;9.90;49.20
28845;DHT22;15976;47.938;7.758;2023-12-28T02:27:46;9.90;49.10
28845;DHT22;15976;47.938;7.758;2023-12-28T02:30:16;9.90;49.40
28845;DHT22;15976;47.938;7.758;2023-12-28T02:33:07;9.80;49.70
28845;DHT22;15976;47.938;7.758;2023-12-28T02:35:59;9.70;49.60
28845;DHT22;15976;47.938;7.758;2023-12-28T02:38:29;9.80;49.00
28845;DHT22;15976;47.938;7.758;2023-12-28T02:40:57;9.80;49.20
28845;DHT22;15976;47.938;7.758;2023-12-28T02:43:25;9.80;49.00
28845;DHT22;15976;47.938;7.758;2023-12-28T02:45:52;9.80;48.80
28845;DHT22;15976;47.938;7.758;2023-12-28T02:48:20;9.90;48.70
28845;DHT22;15976;47.938;7.758;2023-12-28T02:50:47;9.90;48.60
28845;DHT22;15976;47.938;7.758;2023-12-28T02:53:14;9.90;48.90
28845;DHT22;15976;47.938;7.758;2023-12-28T02:55:41;9.90;48.70
28845;DHT22;15976;47.938;7.758;2023-12-28T02:58:08;10.00;48.40
28845;DHT22;15976;47.938;7.758;2023-12-28T03:00:35;10.10;48.10
28845;DHT22;15976;47.938;7.758;2023-12-28T03:03:03;10.10;48.00
28845;DHT22;15976;47.938;7.758;2023-12-28T03:05:30;10.10;47.90
28845;DHT22;15976;47.938;7.758;2023-12-28T03:07:57;10.20;47.80
28845;DHT22;15976;47.938;7.758;2023-12-28T03:10:25;10.20;48.00
28845;DHT22;15976;47.938;7.758;2023-12-28T03:12:52;10.20;47.80
28845;DHT22;15976;47.938;7.758;2023-12-28T03:15:19;10.30;47.70
28845;DHT22;15976;47.938;7.758;2023-12-28T03:17:46;10.30;47.50
28845;DHT22;15976;47.938;7.758;2023-12-28T03:20:15;10.40;47.50
28845;DHT22;15976;47.938;7.758;2023-12-28T03:22:43;10.40;47.30
28845;DHT22;15976;47.938;7.758;2023-12-28T03:25:10;10.50;47.20
28845;DHT22;15976;47.938;7.758;2023-12-28T03:27:38;10.40;47.40
28845;DHT22;15976;47.938;7.758;2023-12-28T03:30:06;10.50;47.10
28845;DHT22;15976;47.938;7.758;2023-12-28T03:32:33;10.50;46.80
28845;DHT22;15976;47.938;7.758;2023-12-28T03:35:00;10.60;46.70
28845;DHT22;15976;47.938;7.758;2023-12-28T03:37:27;10.60;47.40
28845;DHT22;15976;47.938;7.758;2023-12-28T03:39:55;10.60;47.00
28845;DHT22;15976;47.938;7.758;2023-12-28T03:42:22;10.50;47.00
28845;DHT22;15976;47.938;7.758;2023-12-28T03:44:49;10.50;46.80
28845;DHT22;15976;47.938;7.758;2023-12-28T03:47:16;10.60;46.60
28845;DHT22;15976;47.938;7.758;2023-12-28T03:49:43;10.60;46.70
28845;DHT22;15976;47.938;7.758;2023-12-28T03:52:12;10.70;46.60
28845;DHT22;15976;47.938;7.758;2023-12-28T03:54:39;10.70;46.60
28845;DHT22;15976;47.938;7.758;2023-12-28T03:57:06;10.80;46.70
28845;DHT22;15976;47.938;7.758;2023-12-28T03:59:33;10.80;46.70
28845;DHT22;15976;47.938;7.758;2023-12-28T04:02:01;10.90;46.60
28845;DHT22;15976;47.938;7.758;2023-12-28T04:04:28;10.90;46.50
28845;DHT22;15976;47.938;7.758;2023-12-28T04:06:55;10.90;46.50
28845;DHT22;15976;47.938;7.758;2023-12-28T04:09:22;10.90;46.60
28845;DHT22;15976;47.938;7.758;2023-12-28T04:11:49;10.90;46.60
28845;DHT22;15976;47.938;7.758;2023-12-28T04:14:16;10.90;46.60
28845;DHT22;15976;47.938;7.758;2023-12-28T04:16:43;10.90;46.70
28845;DHT22;15976;47.938;7.758;2023-12-28T04:19:10;11.00;46.70
28845;DHT22;15976;47.938;7.758;2023-12-28T04:21:37;11.00;46.60
28845;DHT22;15976;47.938;7.758;2023-12-28T04:24:04;11.00;46.70
28845;DHT22;15976;47.938;7.758;2023-12-28T04:26:31;11.10;46.70
28845;DHT22;15976;47.938;7.758;2023-12-28T04:29:01;11.10;46.50
28845;DHT22;15976;47.938;7.758;2023-12-28T04:31:28;11.20;46.40
28845;DHT22;15976;47.938;7.758;2023-12-28T04:33:55;11.20;46.30
28845;DHT22;15976;47.938;7.758;2023-12-28T04:36:22;11.30;46.50
28845;DHT22;15976;47.938;7.758;2023-12-28T04:38:49;11.30;46.20
28845;DHT22;15976;47.938;7.758;2023-12-28T04:41:17;11.30;46.20
28845;DHT22;15976;47.938;7.758;2023-12-28T04:43:44;11.40;46.30
28845;DHT22;15976;47.938;7.758;2023-12-28T04:46:11;11.30;46.30
28845;DHT22;15976;47.938;7.758;2023-12-28T04:48:38;11.40;46.20
28845;DHT22;15976;47.938;7.758;2023-12-28T04:51:06;11.40;46.10
28845;DHT22;15976;47.938;7.758;2023-12-28T04:53:33;11.40;46.10
28845;DHT22;15976;47.938;7.758;2023-12-28T04:56:00;11.50;46.10
28845;DHT22;15976;47.938;7.758;2023-12-28T04:58:27;11.50;45.90
28845;DHT22;15976;47.938;7.758;2023-12-28T05:00:54;11.50;45.70
28845;DHT22;15976;47.938;7.758;2023-12-28T05:03:22;11.50;45.60
28845;DHT22;15976;47.938;7.758;2023-12-28T05:05:49;11.50;45.60
28845;DHT22;15976;47.938;7.758;2023-12-28T05:08:16;11.50;45.50
28845;DHT22;15976;47.938;7.758;2023-12-28T05:10:43;11.60;45.60
28845;DHT22;15976;47.938;7.758;2023-12-28T05:13:10;11.50;45.60
28845;DHT22;15976;47.938;7.758;2023-12-28T05:15:38;11.50;45.60
28845;DHT22;15976;47.938;7.758;2023-12-28T05:18:05;11.50;45.70
28845;DHT22;15976;47.938;7.758;2023-12-28T05:20:34;11.50;45.80
28845;DHT22;15976;47.938;7.758;2023-12-28T05:23:01;11.50;45.90
28845;DHT22;15976;47.938;7.758;2023-12-28T05:25:29;11.50;46.00
28845;DHT22;15976;47.938;7.758;2023-12-28T05:27:56;11.40;46.10
28845;DHT22;15976;47.938;7.758;2023-12-28T05:30:23;11.40;46.10
28845;DHT22;15976;47.938;7.758;2023-12-28T05:32:50;11.40;46.10
28845;DHT22;15976;47.938;7.758;2023-12-28T05:35:17;11.40;46.10
28845;DHT22;15976;47.938;7.758;2023-12-28T05:37:44;11.40;46.10
28845;DHT22;15976;47.938;7.758;2023-12-28T05:40:11;11.30;46.10
28845;DHT22;15976;47.938;7.758;2023-12-28T05:42:39;11.30;46.20
28845;DHT22;15976;47.938;7.758;2023-12-28T05:45:06;11.30;46.30
28845;DHT22;15976;47.938;7.758;2023-12-28T05:47:33;11.30;46.40
28845;DHT22;15976;47.938;7.758;2023-12-28T05:50:00;11.30;47.10
28845;DHT22;15976;47.938;7.758;2023-12-28T05:52:30;11.30;46.50
28845;DHT22;15976;47.938;7.758;2023-12-28T05:54:57;11.30;46.50
28845;DHT22;15976;47.938;7.758;2023-12-28T05:57:24;11.30;46.40
28845;DHT22;15976;47.938;7.758;2023-12-28T05:59:53;11.20;46.40
28845;DHT22;15976;47.938;7.758;2023-12-28T06:02:20;11.20;46.30
28845;DHT22;15976;47.938;7.758;2023-12-28T06:04:47;11.20;46.30
28845;DHT22;15976;47.938;7.758;2023-12-28T06:07:15;11.20;46.40
28845;DHT22;15976;47.938;7.758;2023-12-28T06:09:42;11.20;46.50
28845;DHT22;15976;47.938;7.758;2023-12-28T06:12:09;11.20;46.50
28845;DHT22;15976;47.938;7.758;2023-12-28T06:14:37;11.20;46.60
28845;DHT22;15976;47.938;7.758;2023-12-28T06:17:04;11.20;46.50
28845;DHT22;15976;47.938;7.758;2023-12-28T06:19:31;11.20;46.40
28845;DHT22;15976;47.938;7.758;2023-12-28T06:21:58;11.20;46.40
28845;DHT22;15976;47.938;7.758;2023-12-28T06:24:25;11.20;46.40
28845;DHT22;15976;47.938;7.758;2023-12-28T06:26:52;11.20;46.30
28845;DHT22;15976;47.938;7.758;2023-12-28T06:29:19;11.20;46.10
28845;DHT22;15976;47.938;7.758;2023-12-28T06:31:48;11.20;45.90
28845;DHT22;15976;47.938;7.758;2023-12-28T06:34:15;11.30;45.90
28845;DHT22;15976;47.938;7.758;2023-12-28T06:36:42;11.30;45.80
28845;DHT22;15976;47.938;7.758;2023-12-28T06:39:10;11.30;45.80
28845;DHT22;15976;47.938;7.758;2023-12-28T06:41:37;11.40;45.80
28845;DHT22;15976;47.938;7.758;2023-12-28T06:44:04;11.40;45.80
28845;DHT22;15976;47.938;7.758;2023-12-28T06:46:32;11.40;45.80
28845;DHT22;15976;47.938;7.758;2023-12-28T06:48:58;11.30;45.70
28845;DHT22;15976;47.938;7.758;2023-12-28T06:51:26;11.40;45.80
28845;DHT22;15976;47.938;7.758;2023-12-28T06:53:53;11.40;45.80
28845;DHT22;15976;47.938;7.758;2023-12-28T06:56:20;11.40;45.90
28845;DHT22;15976;47.938;7.758;2023-12-28T06:58:47;11.40;45.90
28845;DHT22;15976;47.938;7.758;2023-12-28T07:01:14;11.40;45.80
28845;DHT22;15976;47.938;7.758;2023-12-28T07:03:42;11.40;46.00
28845;DHT22;15976;47.938;7.758;2023-12-28T07:06:10;11.50;46.10
28845;DHT22;15976;47.938;7.758;2023-12-28T07:08:37;11.50;46.00
28845;DHT22;15976;47.938;7.758;2023-12-28T07:11:04;11.50;46.10
28845;DHT22;15976;47.938;7.758;2023-12-28T07:13:32;11.50;46.00
28845;DHT22;15976;47.938;7.758;2023-12-28T07:15:59;11.50;46.00
28845;DHT22;15976;47.938;7.758;2023-12-28T07:18:28;11.50;46.10
28845;DHT22;15976;47.938;7.758;2023-12-28T07:20:56;11.60;46.80
28845;DHT22;15976;47.938;7.758;2023-12-28T07:23:23;11.60;46.40
28845;DHT22;15976;47.938;7.758;2023-12-28T07:25:50;11.60;46.50
28845;DHT22;15976;47.938;7.758;2023-12-28T07:28:17;11.60;46.60
28845;DHT22;15976;47.938;7.758;2023-12-28T07:30:44;11.60;46.60
28845;DHT22;15976;47.938;7.758;2023-12-28T07:33:11;11.60;46.70
28845;DHT22;15976;47.938;7.758;2023-12-28T07:35:39;11.70;46.80
28845;DHT22;15976;47.938;7.758;2023-12-28T07:38:07;11.60;46.90
28845;DHT22;15976;47.938;7.758;2023-12-28T07:40:34;11.60;46.90
28845;DHT22;15976;47.938;7.758;2023-12-28T07:43:01;11.60;47.10
28845;DHT22;15976;47.938;7.758;2023-12-28T07:45:28;11.60;47.30
28845;DHT22;15976;47.938;7.758;2023-12-28T07:47:56;11.60;47.50
28845;DHT22;15976;47.938;7.758;2023-12-28T07:50:24;11.70;47.90
28845;DHT22;15976;47.938;7.758;2023-12-28T07:52:51;11.70;48.20
28845;DHT22;15976;47.938;7.758;2023-12-28T07:55:18;11.70;48.70
28845;DHT22;15976;47.938;7.758;2023-12-28T07:57:46;11.70;49.20
28845;DHT22;15976;47.938;7.758;2023-12-28T08:00:13;11.80;49.60
28845;DHT22;15976;47.938;7.758;2023-12-28T08:02:41;11.80;49.90
28845;DHT22;15976;47.938;7.758;2023-12-28T08:05:09;11.80;50.40
28845;DHT22;15976;47.938;7.758;2023-12-28T08:07:36;11.80;50.60
28845;DHT22;15976;47.938;7.758;2023-12-28T08:10:03;11.90;50.50
28845;DHT22;15976;47.938;7.758;2023-12-28T08:12:30;11.90;50.40
28845;DHT22;15976;47.938;7.758;2023-12-28T08:14:59;11.90;50.40
28845;DHT22;15976;47.938;7.758;2023-12-28T08:17:26;12.00;50.60
28845;DHT22;15976;47.938;7.758;2023-12-28T08:19:54;12.00;50.50
28845;DHT22;15976;47.938;7.758;2023-12-28T08:22:22;11.90;50.40
28845;DHT22;15976;47.938;7.758;2023-12-28T08:24:49;12.00;50.40
28845;DHT22;15976;47.938;7.758;2023-12-28T08:27:17;12.00;50.40
28845;DHT22;15976;47.938;7.758;2023-12-28T08:29:44;12.00;50.30
28845;DHT22;15976;47.938;7.758;2023-12-28T08:32:12;12.00;50.10
28845;DHT22;15976;47.938;7.758;2023-12-28T08:34:39;12.10;50.20
28845;DHT22;15976;47.938;7.758;2023-12-28T08:37:06;12.00;50.10
28845;DHT22;15976;47.938;7.758;2023-12-28T08:39:33;12.10;50.20
28845;DHT22;15976;47.938;7.758;2023-12-28T08:42:01;12.10;50.20
28845;DHT22;15976;47.938;7.758;2023-12-28T08:44:28;12.10;50.10
28845;DHT22;15976;47.938;7.758;2023-12-28T08:46:55;12.10;50.00
28845;DHT22;15976;47.938;7.758;2023-12-28T08:49:22;12.10;49.80
28845;DHT22;15976;47.938;7.758;2023-12-28T08:51:50;12.10;49.60
28845;DHT22;15976;47.938;7.758;2023-12-28T08:54:18;12.20;49.60
28845;DHT22;15976;47.938;7.758;2023-12-28T08:56:45;12.10;49.50
28845;DHT22;15976;47.938;7.758;2023-12-28T08:59:17;12.10;49.50
28845;DHT22;15976;47.938;7.758;2023-12-28T09:01:44;12.10;49.50
28845;DHT22;15976;47.938;7.758;2023-12-28T09:04:11;12.20;49.70
28845;DHT22;15976;47.938;7.758;2023-12-28T09:06:38;12.20;49.60
28845;DHT22;15976;47.938;7.758;2023-12-28T09:09:06;12.20;49.60
28845;DHT22;15976;47.938;7.758;2023-12-28T09:11:33;12.20;49.50
28845;DHT22;15976;47.938;7.758;2023-12-28T09:14:00;12.20;49.50
28845;DHT22;15976;47.938;7.758;2023-12-28T09:16:27;12.20;49.50
28845;DHT22;15976;47.938;7.758;2023-12-28T09:18:55;12.20;49.60
28845;DHT22;15976;47.938;7.758;2023-12-28T09:21:22;12.20;49.50
28845;DHT22;15976;47.938;7.758;2023-12-28T09:23:49;12.30;49.60
28845;DHT22;15976;47.938;7.758;2023-12-28T09:26:17;12.30;49.60
28845;DHT22;15976;47.938;7.758;2023-12-28T09:28:44;12.30;49.50
28845;DHT22;15976;47.938;7.758;2023-12-28T09:31:11;12.40;49.50
28845;DHT22;15976;47.938;7.758;2023-12-28T09:33:39;12.40;49.50
28845;DHT22;15976;47.938;7.758;2023-12-28T09:36:06;12.50;49.70
28845;DHT22;15976;47.938;7.758;2023-12-28T09:38:34;12.50;49.90
28845;DHT22;15976;47.938;7.758;2023-12-28T09:41:11;12.50;50.10
28845;DHT22;15976;47.938;7.758;2023-12-28T09:43:53;12.50;50.40
28845;DHT22;15976;47.938;7.758;2023-12-28T09:46:25;12.50;50.50
28845;DHT22;15976;47.938;7.758;2023-12-28T09:48:53;12.60;50.50
28845;DHT22;15976;47.938;7.758;2023-12-28T09:51:23;12.60;50.60
28845;DHT22;15976;47.938;7.758;2023-12-28T09:53:50;12.60;50.80
28845;DHT22;15976;47.938;7.758;2023-12-28T09:56:18;12.60;50.90
28845;DHT22;15976;47.938;7.758;2023-12-28T09:58:46;12.60;51.20
28845;DHT22;15976;47.938;7.758;2023-12-28T10:01:17;12.60;51.30
28845;DHT22;15976;47.938;7.758;2023-12-28T10:03:44;12.60;51.50
28845;DHT22;15976;47.938;7.758;2023-12-28T10:06:11;12.60;52.00
28845;DHT22;15976;47.938;7.758;2023-12-28T10:08:46;12.60;51.50
28845;DHT22;15976;47.938;7.758;2023-12-28T10:11:19;12.70;51.60
28845;DHT22;15976;47.938;7.758;2023-12-28T10:13:49;12.70;51.60
28845;DHT22;15976;47.938;7.758;2023-12-28T10:16:16;12.70;51.50
28845;DHT22;15976;47.938;7.758;2023-12-28T10:18:44;12.70;51.40
28845;DHT22;15976;47.938;7.758;2023-12-28T10:21:11;12.80;51.40
28845;DHT22;15976;47.938;7.758;2023-12-28T10:23:39;12.70;51.30
28845;DHT22;15976;47.938;7.758;2023-12-28T10:26:06;12.70;51.30
28845;DHT22;15976;47.938;7.758;2023-12-28T10:28:34;12.70;51.40
28845;DHT22;15976;47.938;7.758;2023-12-28T10:31:03;12.80;51.70
28845;DHT22;15976;47.938;7.758;2023-12-28T10:33:37;12.70;51.70
28845;DHT22;15976;47.938;7.758;2023-12-28T10:36:07;12.70;51.70
28845;DHT22;15976;47.938;7.758;2023-12-28T10:38:36;12.70;51.90
28845;DHT22;15976;47.938;7.758;2023-12-28T10:41:07;12.70;52.00
28845;DHT22;15976;47.938;7.758;2023-12-28T10:46:10;12.60;52.50
28845;DHT22;15976;47.938;7.758;2023-12-28T10:48:41;12.60;52.70
28845;DHT22;15976;47.938;7.758;2023-12-28T10:51:10;12.60;52.90
28845;DHT22;15976;47.938;7.758;2023-12-28T10:53:45;12.60;53.10
28845;DHT22;15976;47.938;7.758;2023-12-28T10:56:33;12.60;53.20
28845;DHT22;15976;47.938;7.758;2023-12-28T11:01:37;12.70;53.30
28845;DHT22;15976;47.938;7.758;2023-12-28T11:04:24;12.70;53.20
28845;DHT22;15976;47.938;7.758;2023-12-28T11:06:54;12.80;53.20
28845;DHT22;15976;47.938;7.758;2023-12-28T11:09:24;12.90;53.80
28845;DHT22;15976;47.938;7.758;2023-12-28T11:11:53;13.00;53.20
28845;DHT22;15976;47.938;7.758;2023-12-28T11:14:21;13.10;53.20
28845;DHT22;15976;47.938;7.758;2023-12-28T11:16:48;13.10;53.20
28845;DHT22;15976;47.938;7.758;2023-12-28T11:19:16;13.10;53.20
28845;DHT22;15976;47.938;7.758;2023-12-28T11:21:44;13.20;53.30
28845;DHT22;15976;47.938;7.758;2023-12-28T11:24:11;13.20;53.40
28845;DHT22;15976;47.938;7.758;2023-12-28T11:26:40;13.20;53.40
28845;DHT22;15976;47.938;7.758;2023-12-28T11:29:08;13.10;53.50
28845;DHT22;15976;47.938;7.758;2023-12-28T11:31:35;13.10;53.60
28845;DHT22;15976;47.938;7.758;2023-12-28T11:34:04;13.10;53.70
28845;DHT22;15976;47.938;7.758;2023-12-28T11:36:46;13.10;53.80
28845;DHT22;15976;47.938;7.758;2023-12-28T11:39:26;13.00;53.70
28845;DHT22;15976;47.938;7.758;2023-12-28T11:42:06;13.00;53.80
28845;DHT22;15976;47.938;7.758;2023-12-28T11:44:39;12.90;53.80
28845;DHT22;15976;47.938;7.758;2023-12-28T11:47:15;12.90;53.90
28845;DHT22;15976;47.938;7.758;2023-12-28T11:49:43;12.80;54.00
28845;DHT22;15976;47.938;7.758;2023-12-28T11:52:25;12.80;54.20
28845;DHT22;15976;47.938;7.758;2023-12-28T11:54:53;12.80;54.30
28845;DHT22;15976;47.938;7.758;2023-12-28T11:57:21;12.70;54.50
28845;DHT22;15976;47.938;7.758;2023-12-28T11:59:53;12.70;54.70
28845;DHT22;15976;47.938;7.758;2023-12-28T12:02:21;12.60;54.80
28845;DHT22;15976;47.938;7.758;2023-12-28T12:04:48;12.60;55.00
28845;DHT22;15976;47.938;7.758;2023-12-28T12:07:19;12.60;55.20
28845;DHT22;15976;47.938;7.758;2023-12-28T12:09:46;12.50;55.20
28845;DHT22;15976;47.938;7.758;2023-12-28T12:12:16;12.50;55.30
28845;DHT22;15976;47.938;7.758;2023-12-28T12:14:43;12.50;55.50
28845;DHT22;15976;47.938;7.758;2023-12-28T12:17:10;12.50;55.80
28845;DHT22;15976;47.938;7.758;2023-12-28T12:19:37;12.40;55.90
28845;DHT22;15976;47.938;7.758;2023-12-28T12:22:05;12.40;56.20
28845;DHT22;15976;47.938;7.758;2023-12-28T12:24:32;12.40;56.90
28845;DHT22;15976;47.938;7.758;2023-12-28T12:27:01;12.20;57.90
28845;DHT22;15976;47.938;7.758;2023-12-28T12:29:32;12.00;59.20
28845;DHT22;15976;47.938;7.758;2023-12-28T12:32:00;11.80;60.20
28845;DHT22;15976;47.938;7.758;2023-12-28T12:34:29;11.60;61.60
28845;DHT22;15976;47.938;7.758;2023-12-28T12:36:57;11.40;63.10
28845;DHT22;15976;47.938;7.758;2023-12-28T12:39:26;11.30;64.30
28845;DHT22;15976;47.938;7.758;2023-12-28T12:41:53;11.10;65.40
28845;DHT22;15976;47.938;7.758;2023-12-28T12:44:23;11.00;66.50
28845;DHT22;15976;47.938;7.758;2023-12-28T12:46:58;10.90;67.20
28845;DHT22;15976;47.938;7.758;2023-12-28T12:49:29;10.80;68.30
28845;DHT22;15976;47.938;7.758;2023-12-28T12:51:56;10.60;69.40
28845;DHT22;15976;47.938;7.758;2023-12-28T12:54:26;10.50;70.50
28845;DHT22;15976;47.938;7.758;2023-12-28T12:56:54;10.40;71.20
28845;DHT22;15976;47.938;7.758;2023-12-28T12:59:21;10.40;71.90
28845;DHT22;15976;47.938;7.758;2023-12-28T13:01:48;10.40;72.20
28845;DHT22;15976;47.938;7.758;2023-12-28T13:04:17;10.40;72.40
28845;DHT22;15976;47.938;7.758;2023-12-28T13:06:44;10.40;72.60
28845;DHT22;15976;47.938;7.758;2023-12-28T13:09:12;10.50;72.40
28845;DHT22;15976;47.938;7.758;2023-12-28T13:11:39;10.50;72.20
28845;DHT22;15976;47.938;7.758;2023-12-28T13:14:06;10.50;72.00
28845;DHT22;15976;47.938;7.758;2023-12-28T13:16:33;10.50;72.00
28845;DHT22;15976;47.938;7.758;2023-12-28T13:19:00;10.60;71.90
28845;DHT22;15976;47.938;7.758;2023-12-28T13:21:27;10.60;71.90
28845;DHT22;15976;47.938;7.758;2023-12-28T13:23:54;10.60;71.60
28845;DHT22;15976;47.938;7.758;2023-12-28T13:26:23;10.60;71.60
28845;DHT22;15976;47.938;7.758;2023-12-28T13:28:50;10.60;71.40
28845;DHT22;15976;47.938;7.758;2023-12-28T13:31:17;10.60;71.30
28845;DHT22;15976;47.938;7.758;2023-12-28T13:33:45;10.60;71.20
28845;DHT22;15976;47.938;7.758;2023-12-28T13:36:13;10.70;71.00
28845;DHT22;15976;47.938;7.758;2023-12-28T13:38:41;10.70;70.70
28845;DHT22;15976;47.938;7.758;2023-12-28T13:41:08;10.80;70.60
28845;DHT22;15976;47.938;7.758;2023-12-28T13:43:35;10.90;70.30
28845;DHT22;15976;47.938;7.758;2023-12-28T13:46:02;11.00;70.10
28845;DHT22;15976;47.938;7.758;2023-12-28T13:48:31;10.90;69.80
28845;DHT22;15976;47.938;7.758;2023-12-28T13:50:58;11.00;69.80
28845;DHT22;15976;47.938;7.758;2023-12-28T13:53:25;11.00;69.80
28845;DHT22;15976;47.938;7.758;2023-12-28T13:55:53;10.90;69.90
28845;DHT22;15976;47.938;7.758;2023-12-28T13:58:20;10.90;70.20
28845;DHT22;15976;47.938;7.758;2023-12-28T14:00:47;10.90;70.20
28845;DHT22;15976;47.938;7.758;2023-12-28T14:03:14;10.90;70.20
28845;DHT22;15976;47.938;7.758;2023-12-28T14:05:41;10.90;69.90
28845;DHT22;15976;47.938;7.758;2023-12-28T14:08:09;11.00;69.70
28845;DHT22;15976;47.938;7.758;2023-12-28T14:10:36;11.00;69.50
28845;DHT22;15976;47.938;7.758;2023-12-28T14:13:05;11.10;69.50
28845;DHT22;15976;47.938;7.758;2023-12-28T14:15:32;11.10;69.40
28845;DHT22;15976;47.938;7.758;2023-12-28T14:17:59;11.10;69.40
28845;DHT22;15976;47.938;7.758;2023-12-28T14:20:27;11.10;69.40
28845;DHT22;15976;47.938;7.758;2023-12-28T14:22:55;11.10;69.30
28845;DHT22;15976;47.938;7.758;2023-12-28T14:25:23;11.20;69.30
28845;DHT22;15976;47.938;7.758;2023-12-28T14:27:50;11.20;69.30
28845;DHT22;15976;47.938;7.758;2023-12-28T14:30:19;11.20;69.30
28845;DHT22;15976;47.938;7.758;2023-12-28T14:32:46;11.20;69.00
28845;DHT22;15976;47.938;7.758;2023-12-28T14:35:14;11.20;68.90
28845;DHT22;15976;47.938;7.758;2023-12-28T14:37:45;11.20;68.90
28845;DHT22;15976;47.938;7.758;2023-12-28T14:40:12;11.20;68.90
28845;DHT22;15976;47.938;7.758;2023-12-28T14:42:39;11.30;68.90
28845;DHT22;15976;47.938;7.758;2023-12-28T14:45:07;11.30;68.80
28845;DHT22;15976;47.938;7.758;2023-12-28T14:47:34;11.30;68.80
28845;DHT22;15976;47.938;7.758;2023-12-28T14:50:02;11.30;68.70
28845;DHT22;15976;47.938;7.758;2023-12-28T14:52:32;11.30;68.70
28845;DHT22;15976;47.938;7.758;2023-12-28T14:55:00;11.30;68.60
28845;DHT22;15976;47.938;7.758;2023-12-28T14:57:27;11.30;68.60
28845;DHT22;15976;47.938;7.758;2023-12-28T14:59:54;11.30;68.60
28845;DHT22;15976;47.938;7.758;2023-12-28T15:02:21;11.40;69.50
28845;DHT22;15976;47.938;7.758;2023-12-28T15:04:49;11.40;68.70
28845;DHT22;15976;47.938;7.758;2023-12-28T15:07:16;11.40;68.80
28845;DHT22;15976;47.938;7.758;2023-12-28T15:09:43;11.40;68.90
28845;DHT22;15976;47.938;7.758;2023-12-28T15:12:11;11.40;69.10
28845;DHT22;15976;47.938;7.758;2023-12-28T15:14:38;11.40;69.10
28845;DHT22;15976;47.938;7.758;2023-12-28T15:17:05;11.40;69.20
28845;DHT22;15976;47.938;7.758;2023-12-28T15:19:36;11.40;69.20
28845;DHT22;15976;47.938;7.758;2023-12-28T15:22:03;11.40;69.30
28845;DHT22;15976;47.938;7.758;2023-12-28T15:24:31;11.40;69.30
28845;DHT22;15976;47.938;7.758;2023-12-28T15:26:58;11.50;69.40
28845;DHT22;15976;47.938;7.758;2023-12-28T15:29:25;11.50;69.40
28845;DHT22;15976;47.938;7.758;2023-12-28T15:31:52;11.40;69.40
28845;DHT22;15976;47.938;7.758;2023-12-28T15:34:19;11.40;69.90
28845;DHT22;15976;47.938;7.758;2023-12-28T15:36:47;11.30;70.50
28845;DHT22;15976;47.938;7.758;2023-12-28T15:39:14;11.20;71.30
28845;DHT22;15976;47.938;7.758;2023-12-28T15:41:41;11.10;71.90
28845;DHT22;15976;47.938;7.758;2023-12-28T15:44:08;11.10;72.20